This is the latest recevied weather packets stored in our database for station/object WA6ODQ-13. If no packets are shown the sender has not sent any weather packets the latest 10 day(s).
| Time | Temp. | Humidity | Pressure | Rain* | Wind** | Luminosity | Snow |
|---|---|---|---|---|---|---|---|
| 1777694775 | 18.33° C | 73% | 1009.1 hPa | 0 mm | - | 0 W/m² | - |
| 1777694473 | 18.33° C | 73% | 1009.4 hPa | 0 mm | - | 0 W/m² | - |
| 1777694169 | 18.33° C | 74% | 1009.3 hPa | 0 mm | - | 0 W/m² | - |
| 1777693866 | 18.89° C | 73% | 1009.3 hPa | 0 mm | - | 0 W/m² | - |
| 1777693564 | 18.89° C | 73% | 1009 hPa | 0 mm | - | 0 W/m² | - |
| 1777693262 | 18.33° C | 74% | 1009.1 hPa | 0 mm | - | 0 W/m² | - |
| 1777692960 | 18.33° C | 75% | 1008.8 hPa | 0 mm | - | 0 W/m² | - |
| 1777692657 | 18.33° C | 75% | 1008.7 hPa | 0 mm | - | 0 W/m² | - |
| 1777692353 | 18.89° C | 74% | 1009 hPa | 0 mm | - | 0 W/m² | - |
| 1777692049 | 18.89° C | 74% | 1008.7 hPa | 0 mm | - | 0 W/m² | - |
| 1777691747 | 18.89° C | 73% | 1008.6 hPa | 0 mm | - | 0 W/m² | - |
| 1777691445 | 19.44° C | 73% | 1008.8 hPa | 0 mm | - | 0 W/m² | - |
| 1777691144 | 19.44° C | 72% | 1008.7 hPa | 0 mm | - | 1 W/m² | - |
| 1777690841 | 20° C | 70% | 1008.5 hPa | 0 mm | - | 2 W/m² | - |
| 1777690538 | 20° C | 70% | 1008.5 hPa | 0 mm | - | 3 W/m² | - |
| 1777690237 | 20° C | 70% | 1008.5 hPa | 0 mm | - | 5 W/m² | - |
| 1777689933 | 20.56° C | 69% | 1008.5 hPa | 0 mm | - | 8 W/m² | - |
| 1777689632 | 20.56° C | 68% | 1008.6 hPa | 0 mm | - | 11 W/m² | - |
| 1777689329 | 21.67° C | 66% | 1008.5 hPa | 0 mm | - | 14 W/m² | - |
| 1777689026 | 21.11° C | 67% | 1008.7 hPa | 0 mm | - | 18 W/m² | - |
| 1777688723 | 21.67° C | 67% | 1008.5 hPa | 0 mm | - | 24 W/m² | - |
| 1777688421 | 21.67° C | 66% | 1008.7 hPa | 0 mm | - | 29 W/m² | - |
| 1777688118 | 22.22° C | 66% | 1008.6 hPa | 0 mm | - | 28 W/m² | - |
| 1777687512 | 22.78° C | 64% | 1008.3 hPa | 0 mm | - | 49 W/m² | - |
| 1777673572 | 26.11° C | 52% | 1010.3 hPa | 0 mm | - | 520 W/m² | - |
* Rain latest hour (hover to see other rain measurements)
** Current wind speed in m/s (hover to see current wind gust speed)